createdAt,value
2017-06-23T00:02:11.241Z,20.63
2017-06-23T00:04:40.397Z,22.43
2017-06-23T00:07:09.465Z,18.50
2017-06-23T00:09:38.533Z,18.53
2017-06-23T00:12:07.598Z,16.70
2017-06-23T00:14:37.414Z,16.90
2017-06-23T00:17:06.490Z,21.20
2017-06-23T00:19:36.447Z,17.97
2017-06-23T00:22:05.527Z,19.10
2017-06-23T00:24:35.351Z,18.27
2017-06-23T00:27:04.446Z,21.00
2017-06-23T00:29:33.509Z,17.93
2017-06-23T00:32:03.345Z,19.43
2017-06-23T00:34:32.419Z,18.53
2017-06-23T00:37:02.238Z,19.77
2017-06-23T00:39:31.300Z,16.33
2017-06-23T00:42:00.374Z,15.23
2017-06-23T00:44:29.456Z,16.27
2017-06-23T00:46:58.525Z,16.97
2017-06-23T00:49:27.587Z,13.50
2017-06-23T00:51:56.668Z,14.77
2017-06-23T00:54:25.728Z,15.07
2017-06-23T00:56:54.824Z,15.47
2017-06-23T00:59:23.913Z,14.43
2017-06-23T01:01:52.993Z,16.13
2017-06-23T01:04:22.092Z,19.50
2017-06-23T01:06:51.181Z,14.60
2017-06-23T01:09:20.260Z,16.83
2017-06-23T01:11:50.088Z,13.60
2017-06-23T01:14:19.920Z,14.23
2017-06-23T01:16:48.992Z,20.37
2017-06-23T01:19:19.396Z,17.70
2017-06-23T01:21:49.505Z,19.60
2017-06-23T01:24:18.600Z,20.90
2017-06-23T01:26:47.656Z,17.80
2017-06-23T01:29:16.726Z,18.80
2017-06-23T01:31:46.589Z,16.73
2017-06-23T01:34:15.645Z,18.27
2017-06-23T01:36:45.569Z,20.17
2017-06-23T01:39:14.664Z,16.43
2017-06-23T01:41:44.905Z,14.93
2017-06-23T01:44:14.008Z,23.57
2017-06-23T01:46:43.107Z,16.27
2017-06-23T01:49:12.220Z,16.87
2017-06-23T01:51:42.179Z,18.77
2017-06-23T01:54:11.231Z,19.20
2017-06-23T01:56:40.318Z,17.27
2017-06-23T01:59:09.475Z,23.57
2017-06-23T02:01:38.543Z,15.77
2017-06-23T02:04:07.610Z,16.63
2017-06-23T02:06:36.695Z,16.70
2017-06-23T02:09:05.794Z,13.60
2017-06-23T02:11:34.849Z,14.33
2017-06-23T02:14:03.927Z,14.50
2017-06-23T02:16:33.004Z,15.43
2017-06-23T02:19:02.863Z,15.23
2017-06-23T02:21:31.942Z,14.30
2017-06-23T02:24:01.011Z,17.30
2017-06-23T02:26:30.836Z,13.70
2017-06-23T02:28:59.912Z,12.93
2017-06-23T02:31:29.784Z,15.63
2017-06-23T02:33:58.841Z,13.00
2017-06-23T02:36:27.897Z,17.70
2017-06-23T02:38:57.085Z,15.50
2017-06-23T02:41:26.140Z,20.00
2017-06-23T02:43:55.213Z,15.20
2017-06-23T02:46:25.032Z,15.20
2017-06-23T02:48:54.104Z,19.20
2017-06-23T02:51:23.932Z,17.77
2017-06-23T02:53:53.011Z,13.90
2017-06-23T02:56:22.852Z,15.90
2017-06-23T02:58:51.923Z,12.20
2017-06-23T03:01:21.767Z,14.57
2017-06-23T03:03:50.853Z,17.80
2017-06-23T03:06:19.907Z,12.87
2017-06-23T03:08:48.988Z,11.57
2017-06-23T03:11:18.072Z,16.70
2017-06-23T03:13:47.145Z,13.10
2017-06-23T03:16:16.364Z,11.20
2017-06-23T03:18:45.443Z,14.63
2017-06-23T03:21:14.509Z,14.57
2017-06-23T03:23:44.346Z,11.37
2017-06-23T03:26:14.247Z,13.23
2017-06-23T03:28:43.328Z,13.10
2017-06-23T03:31:13.186Z,12.53
2017-06-23T03:33:42.256Z,14.17
2017-06-23T03:36:11.368Z,9.43
2017-06-23T03:38:41.161Z,12.97
2017-06-23T03:41:10.504Z,9.93
2017-06-23T03:43:39.602Z,10.43
2017-06-23T03:46:09.503Z,11.57
2017-06-23T03:48:38.547Z,11.20
2017-06-23T03:51:08.392Z,11.67
2017-06-23T03:53:37.461Z,11.37
2017-06-23T03:56:07.329Z,12.20
2017-06-23T03:58:36.401Z,10.13
2017-06-23T04:01:05.555Z,10.60
2017-06-23T04:03:34.576Z,10.67
2017-06-23T04:06:03.664Z,13.47
2017-06-23T04:08:32.879Z,13.70
2017-06-23T04:11:01.960Z,11.43
2017-06-23T04:13:31.012Z,10.80
2017-06-23T04:16:00.338Z,8.60
2017-06-23T04:18:29.396Z,10.50
2017-06-23T04:20:58.444Z,11.33
2017-06-23T04:23:27.525Z,8.50
2017-06-23T04:25:57.371Z,9.50
2017-06-23T04:28:26.467Z,9.70
2017-06-23T04:30:55.517Z,9.20
2017-06-23T04:33:24.574Z,10.17
2017-06-23T04:35:53.834Z,14.70
2017-06-23T04:38:22.878Z,10.63
2017-06-23T04:40:51.941Z,10.03
2017-06-23T04:43:21.001Z,11.67
2017-06-23T04:45:50.841Z,12.37
2017-06-23T04:48:19.935Z,9.23
2017-06-23T04:50:49.013Z,10.20
2017-06-23T04:53:18.873Z,13.10
2017-06-23T04:55:47.928Z,12.07
2017-06-23T04:58:16.992Z,11.33
2017-06-23T05:00:46.087Z,11.00
2017-06-23T05:03:15.163Z,11.10
2017-06-23T05:05:44.237Z,15.27
2017-06-23T05:08:13.325Z,12.50
2017-06-23T05:10:42.405Z,13.90
2017-06-23T05:13:11.503Z,12.70
2017-06-23T05:15:40.588Z,13.43
2017-06-23T05:18:09.713Z,12.20
2017-06-23T05:20:38.758Z,12.83
2017-06-23T05:23:07.849Z,12.53
2017-06-23T05:25:36.933Z,12.63
2017-06-23T05:28:06.008Z,13.87
2017-06-23T05:30:35.072Z,12.07
2017-06-23T05:33:04.144Z,12.77
2017-06-23T05:35:33.990Z,13.60
2017-06-23T05:38:03.058Z,13.20
2017-06-23T05:40:32.903Z,13.40
2017-06-23T05:43:02.231Z,14.30
2017-06-23T05:45:31.336Z,16.93
2017-06-23T05:48:00.404Z,15.20
2017-06-23T05:50:29.494Z,16.00
2017-06-23T05:52:58.588Z,16.03
2017-06-23T05:55:27.656Z,21.43
2017-06-23T05:57:56.710Z,20.73
2017-06-23T06:00:25.801Z,25.23
2017-06-23T06:02:55.614Z,23.33
2017-06-23T06:05:24.661Z,21.90
2017-06-23T06:07:53.721Z,23.30
2017-06-23T06:10:23.759Z,25.23
2017-06-23T06:12:52.935Z,23.47
2017-06-23T06:15:21.999Z,26.33
2017-06-23T06:17:51.075Z,25.93
2017-06-23T06:20:20.157Z,25.83
2017-06-23T06:22:49.205Z,23.30
2017-06-23T06:25:19.120Z,24.40
2017-06-23T06:27:48.202Z,25.07
2017-06-23T06:30:18.372Z,23.80
2017-06-23T06:32:48.404Z,26.20
2017-06-23T06:35:17.497Z,29.70
2017-06-23T06:37:46.544Z,26.20
2017-06-23T06:40:15.624Z,25.93
2017-06-23T06:42:44.711Z,28.20
2017-06-23T06:45:13.760Z,29.63
2017-06-23T06:47:42.864Z,26.00
2017-06-23T06:50:12.704Z,29.50
2017-06-23T06:52:41.775Z,28.43
2017-06-23T06:55:11.571Z,25.97
2017-06-23T06:57:41.408Z,27.33
2017-06-23T07:00:10.483Z,27.90
2017-06-23T07:02:39.797Z,24.13
2017-06-23T07:05:08.886Z,26.17
2017-06-23T07:07:38.709Z,24.50
2017-06-23T07:10:07.799Z,25.27
2017-06-23T07:12:36.854Z,31.70
2017-06-23T07:15:05.908Z,27.13
2017-06-23T07:17:34.984Z,23.07
2017-06-23T07:20:04.115Z,26.20
2017-06-23T07:22:33.185Z,26.40
2017-06-23T07:25:02.309Z,25.87
2017-06-23T07:27:31.364Z,20.90
2017-06-23T07:30:00.433Z,21.77
2017-06-23T07:32:29.502Z,22.17
2017-06-23T07:34:58.547Z,22.67
2017-06-23T07:37:27.617Z,26.50
2017-06-23T07:39:57.460Z,25.03
2017-06-23T07:42:26.533Z,25.23
2017-06-23T07:44:56.366Z,25.27
2017-06-23T07:47:25.415Z,29.00
2017-06-23T07:49:54.481Z,26.20
2017-06-23T07:52:23.536Z,24.70
2017-06-23T07:54:52.587Z,24.47
2017-06-23T07:57:21.660Z,27.03
2017-06-23T07:59:50.768Z,27.83
2017-06-23T08:02:19.852Z,23.77
2017-06-23T08:04:48.938Z,28.33
2017-06-23T08:07:18.005Z,22.30
2017-06-23T08:09:47.819Z,23.23
2017-06-23T08:12:17.112Z,24.90
2017-06-23T08:14:46.939Z,23.00
2017-06-23T08:17:16.036Z,22.23
2017-06-23T08:19:45.117Z,24.03
2017-06-23T08:22:14.949Z,24.73
2017-06-23T08:24:44.016Z,25.63
2017-06-23T08:27:13.863Z,22.87
2017-06-23T08:29:42.935Z,24.53
2017-06-23T08:32:12.779Z,21.90
2017-06-23T08:34:41.841Z,25.70
2017-06-23T08:37:11.688Z,23.30
2017-06-23T08:39:40.748Z,22.47
2017-06-23T08:42:10.599Z,20.53
2017-06-23T08:44:39.684Z,20.30
2017-06-23T08:47:08.771Z,20.70
2017-06-23T08:49:37.892Z,20.90
2017-06-23T08:52:07.051Z,20.23
2017-06-23T08:54:36.096Z,19.07
2017-06-23T08:57:05.223Z,20.17
2017-06-23T08:59:34.283Z,18.33
2017-06-23T09:02:03.379Z,20.37
2017-06-23T09:04:32.475Z,18.07
2017-06-23T09:07:01.536Z,18.47
2017-06-23T09:09:30.627Z,17.80
2017-06-23T09:11:59.681Z,18.57
2017-06-23T09:14:28.769Z,18.47
2017-06-23T09:16:57.837Z,17.67
2017-06-23T09:19:26.905Z,15.97
2017-06-23T09:21:55.981Z,16.20
2017-06-23T09:24:25.805Z,15.87
2017-06-23T09:26:54.895Z,17.97
2017-06-23T09:29:24.765Z,17.20
2017-06-23T09:31:53.836Z,18.70
2017-06-23T09:34:22.895Z,18.33
2017-06-23T09:36:52.735Z,16.60
2017-06-23T09:39:21.799Z,16.93
2017-06-23T09:41:51.635Z,17.30
2017-06-23T09:44:20.740Z,17.07
2017-06-23T09:46:49.825Z,16.77
2017-06-23T09:49:19.778Z,18.10
2017-06-23T09:51:48.844Z,17.37
2017-06-23T09:54:18.148Z,22.63
2017-06-23T09:56:47.255Z,17.47
2017-06-23T09:59:16.320Z,19.50
2017-06-23T10:01:45.556Z,17.80
2017-06-23T10:04:14.654Z,16.53
2017-06-23T10:06:43.708Z,19.00
2017-06-23T10:09:12.822Z,17.17
2017-06-23T10:11:41.904Z,16.87
2017-06-23T10:14:11.141Z,19.13
2017-06-23T10:16:40.222Z,16.50
2017-06-23T10:19:09.304Z,17.87
2017-06-23T10:21:38.379Z,17.73
2017-06-23T10:24:07.776Z,15.83
2017-06-23T10:26:37.602Z,16.20
2017-06-23T10:29:06.696Z,16.77
2017-06-23T10:31:35.771Z,15.17
2017-06-23T10:34:05.604Z,17.17
2017-06-23T10:36:34.784Z,15.73
2017-06-23T10:39:03.829Z,17.10
2017-06-23T10:41:32.936Z,19.33
2017-06-23T10:44:01.997Z,16.73
2017-06-23T10:46:31.049Z,14.53
2017-06-23T10:49:00.897Z,14.80
2017-06-23T10:51:29.955Z,15.00
2017-06-23T10:53:59.015Z,13.33
2017-06-23T10:56:28.094Z,13.77
2017-06-23T10:58:57.166Z,15.23
2017-06-23T11:01:26.354Z,12.40
2017-06-23T11:03:56.189Z,13.20
2017-06-23T11:06:25.267Z,12.67
2017-06-23T11:08:54.364Z,15.40
2017-06-23T11:11:23.428Z,16.00
2017-06-23T11:13:52.655Z,18.93
2017-06-23T11:16:22.492Z,11.63
2017-06-23T11:18:51.576Z,15.40
2017-06-23T11:21:20.954Z,15.20
2017-06-23T11:23:50.032Z,12.80
2017-06-23T11:26:19.100Z,14.83
2017-06-23T11:28:48.177Z,14.70
2017-06-23T11:31:17.239Z,13.53
2017-06-23T11:33:46.308Z,14.87
2017-06-23T11:36:15.382Z,14.13
2017-06-23T11:38:44.461Z,14.47
2017-06-23T11:41:13.557Z,14.53
2017-06-23T11:43:42.637Z,12.57
2017-06-23T11:46:11.797Z,12.93
2017-06-23T11:48:40.866Z,12.47
2017-06-23T11:51:09.937Z,13.60
2017-06-23T11:53:39.028Z,13.63
2017-06-23T11:56:08.157Z,16.27
2017-06-23T11:58:37.224Z,14.07
2017-06-23T12:01:06.379Z,14.27
2017-06-23T12:03:35.408Z,13.63
2017-06-23T12:06:04.476Z,13.60
2017-06-23T12:08:34.325Z,12.33
2017-06-23T12:11:03.445Z,11.03
2017-06-23T12:13:32.515Z,13.30
2017-06-23T12:16:01.615Z,13.60
2017-06-23T12:18:30.692Z,14.20
2017-06-23T12:20:59.760Z,14.03
2017-06-23T12:23:29.585Z,13.67
2017-06-23T12:25:58.675Z,15.40
2017-06-23T12:28:27.788Z,12.27
2017-06-23T12:30:57.591Z,13.10
2017-06-23T12:33:27.448Z,16.00
2017-06-23T12:35:56.504Z,11.60
2017-06-23T12:38:25.559Z,10.30
2017-06-23T12:40:54.628Z,11.70
2017-06-23T12:43:23.748Z,11.10
2017-06-23T12:45:52.821Z,11.30
2017-06-23T12:48:21.895Z,10.23
2017-06-23T12:50:50.964Z,12.60
2017-06-23T12:53:20.065Z,10.20
2017-06-23T12:55:50.025Z,12.83
2017-06-23T12:58:19.100Z,11.37
2017-06-23T13:00:48.163Z,10.90
2017-06-23T13:03:17.277Z,10.47
2017-06-23T13:05:47.117Z,10.40
2017-06-23T13:08:16.245Z,10.27
2017-06-23T13:10:46.199Z,9.23
2017-06-23T13:13:15.280Z,9.90
2017-06-23T13:15:44.354Z,9.23
2017-06-23T13:18:13.415Z,10.60
2017-06-23T13:20:42.492Z,9.93
2017-06-23T13:23:11.576Z,9.20
2017-06-23T13:25:41.426Z,8.10
2017-06-23T13:28:10.568Z,8.60
2017-06-23T13:30:40.391Z,8.70
2017-06-23T13:33:09.732Z,8.33
2017-06-23T13:35:38.827Z,9.27
2017-06-23T13:38:08.774Z,8.60
2017-06-23T13:40:37.844Z,8.60
2017-06-23T13:43:06.903Z,7.03
2017-06-23T13:45:35.968Z,7.00
2017-06-23T13:48:05.892Z,6.90
2017-06-23T13:50:35.719Z,8.07
2017-06-23T13:53:04.788Z,7.40
2017-06-23T13:55:34.625Z,7.90
2017-06-23T13:58:03.696Z,7.43
2017-06-23T14:00:33.504Z,11.57
2017-06-23T14:03:02.816Z,9.43
2017-06-23T14:05:32.654Z,8.03
2017-06-23T14:08:01.696Z,10.97
2017-06-23T14:10:30.820Z,7.97
2017-06-23T14:13:00.665Z,8.90
2017-06-23T14:15:30.896Z,7.03
2017-06-23T14:17:59.939Z,6.60
2017-06-23T14:20:29.771Z,6.10
2017-06-23T14:22:58.846Z,6.93
2017-06-23T14:25:28.696Z,8.00
2017-06-23T14:27:57.751Z,8.67
2017-06-23T14:30:27.635Z,8.10
2017-06-23T14:32:56.765Z,6.90
2017-06-23T14:35:26.638Z,9.40
2017-06-23T14:37:55.832Z,10.50
2017-06-23T14:40:24.897Z,9.87
2017-06-23T14:42:54.703Z,10.30
2017-06-23T14:45:23.843Z,8.20
2017-06-23T14:47:52.885Z,7.13
2017-06-23T14:50:22.280Z,7.00
2017-06-23T14:52:51.323Z,7.70
2017-06-23T14:55:20.480Z,6.67
2017-06-23T14:57:49.832Z,10.20
2017-06-23T15:00:19.016Z,8.63
2017-06-23T15:02:48.056Z,7.67
2017-06-23T15:05:17.126Z,8.93
2017-06-23T15:07:46.180Z,8.60
2017-06-23T15:10:15.230Z,9.27
2017-06-23T15:12:44.529Z,7.03
2017-06-23T15:15:13.639Z,9.90
2017-06-23T15:17:42.684Z,9.63
2017-06-23T15:20:11.952Z,9.43
2017-06-23T15:22:41.008Z,11.10
2017-06-23T15:25:10.100Z,8.13
2017-06-23T15:27:39.159Z,7.40
2017-06-23T15:30:08.392Z,10.03
2017-06-23T15:32:37.463Z,9.30
2017-06-23T15:35:06.792Z,9.17
2017-06-23T15:37:35.892Z,11.73
2017-06-23T15:40:04.952Z,10.93
2017-06-23T15:42:34.052Z,8.90
2017-06-23T15:45:03.126Z,8.67
2017-06-23T15:47:32.236Z,10.27
2017-06-23T15:50:01.316Z,8.90
2017-06-23T15:52:30.369Z,8.97
2017-06-23T15:54:59.465Z,8.70
2017-06-23T15:57:28.543Z,7.67
2017-06-23T15:59:57.591Z,7.10
2017-06-23T16:02:26.679Z,8.63
2017-06-23T16:04:55.720Z,8.47
2017-06-23T16:07:24.800Z,7.40
2017-06-23T16:09:53.861Z,8.73
2017-06-23T16:12:23.003Z,7.90
2017-06-23T16:14:52.092Z,7.90
2017-06-23T16:17:21.136Z,6.73
2017-06-23T16:19:50.191Z,6.60
2017-06-23T16:22:19.252Z,7.50
2017-06-23T16:24:48.355Z,7.50
2017-06-23T16:27:17.404Z,7.00
2017-06-23T16:29:46.465Z,5.93
2017-06-23T16:32:15.543Z,9.40
2017-06-23T16:34:44.596Z,7.57
2017-06-23T16:37:13.657Z,7.10
2017-06-23T16:39:42.729Z,8.37
2017-06-23T16:42:11.812Z,6.70
2017-06-23T16:44:40.901Z,7.97
2017-06-23T16:47:09.973Z,7.17
2017-06-23T16:49:39.020Z,5.70
2017-06-23T16:52:08.124Z,6.53
2017-06-23T16:54:37.160Z,6.43
2017-06-23T16:57:06.654Z,8.37
2017-06-23T16:59:35.688Z,6.07
2017-06-23T17:02:04.759Z,6.40
2017-06-23T17:04:33.820Z,7.73
2017-06-23T17:07:02.898Z,8.23
2017-06-23T17:09:31.951Z,7.40
2017-06-23T17:12:01.059Z,10.00
2017-06-23T17:14:30.121Z,6.50
2017-06-23T17:16:59.177Z,10.43
2017-06-23T17:19:28.291Z,8.40
2017-06-23T17:21:57.335Z,9.80
2017-06-23T17:24:26.392Z,7.20
2017-06-23T17:26:55.475Z,7.37
2017-06-23T17:29:24.556Z,10.47
2017-06-23T17:31:53.632Z,7.50
2017-06-23T17:34:22.676Z,6.10
2017-06-23T17:36:51.760Z,5.50
2017-06-23T17:39:20.848Z,6.63
2017-06-23T17:41:49.895Z,5.50
2017-06-23T17:44:18.975Z,6.43
2017-06-23T17:46:48.052Z,7.93
2017-06-23T17:49:17.125Z,6.30
2017-06-23T17:51:46.208Z,6.90
2017-06-23T17:54:15.325Z,9.27
2017-06-23T17:56:44.387Z,6.03
2017-06-23T17:59:13.726Z,8.10
2017-06-23T18:01:42.794Z,5.47
2017-06-23T18:04:11.853Z,7.47
2017-06-23T18:06:40.920Z,10.50
2017-06-23T18:09:10.002Z,7.10
2017-06-23T18:11:39.059Z,5.57
2017-06-23T18:14:08.169Z,5.80
2017-06-23T18:16:37.225Z,7.43
2017-06-23T18:19:06.297Z,4.53
2017-06-23T18:21:35.364Z,4.93
2017-06-23T18:24:04.457Z,6.90
2017-06-23T18:26:33.483Z,5.50
2017-06-23T18:29:02.626Z,6.23
2017-06-23T18:31:31.680Z,5.97
2017-06-23T18:34:00.757Z,7.20
2017-06-23T18:36:29.839Z,5.50
2017-06-23T18:38:58.907Z,7.83
2017-06-23T18:41:27.995Z,5.37
2017-06-23T18:43:57.034Z,5.70
2017-06-23T18:46:26.103Z,6.20
2017-06-23T18:48:55.167Z,6.70
2017-06-23T18:51:24.239Z,9.33
2017-06-23T18:53:53.289Z,8.00
2017-06-23T18:56:22.587Z,7.73
2017-06-23T18:58:51.639Z,4.83
2017-06-23T19:01:20.703Z,10.80
2017-06-23T19:03:49.843Z,7.73
2017-06-23T19:06:18.875Z,4.60
2017-06-23T19:08:47.969Z,8.10
2017-06-23T19:11:17.061Z,5.50
2017-06-23T19:13:46.129Z,4.80
2017-06-23T19:16:15.149Z,6.67
2017-06-23T19:18:44.217Z,5.63
2017-06-23T19:21:13.292Z,5.27
2017-06-23T19:23:42.372Z,4.90
2017-06-23T19:26:11.464Z,7.07
2017-06-23T19:28:40.508Z,5.67
2017-06-23T19:31:09.597Z,7.63
2017-06-23T19:33:38.646Z,9.47
2017-06-23T19:36:07.724Z,7.00
2017-06-23T19:38:36.782Z,6.37
2017-06-23T19:41:05.849Z,9.50
2017-06-23T19:43:34.981Z,7.07
2017-06-23T19:46:04.069Z,5.10
2017-06-23T19:48:33.389Z,4.73
2017-06-23T19:51:02.444Z,6.93
2017-06-23T19:53:31.786Z,6.33
2017-06-23T19:56:00.871Z,5.93
2017-06-23T19:58:29.924Z,10.97
2017-06-23T20:00:59.868Z,5.70
2017-06-23T20:03:28.909Z,5.30
2017-06-23T20:05:57.980Z,6.23
2017-06-23T20:08:27.293Z,7.13
2017-06-23T20:10:56.360Z,4.10
2017-06-23T20:13:25.426Z,6.30
2017-06-23T20:15:54.492Z,6.40
2017-06-23T20:18:23.552Z,5.67
2017-06-23T20:20:52.647Z,7.50
2017-06-23T20:23:21.699Z,4.90
2017-06-23T20:25:50.786Z,7.63
2017-06-23T20:28:20.605Z,4.33
2017-06-23T20:30:49.708Z,5.20
2017-06-23T20:33:18.769Z,5.60
2017-06-23T20:35:47.857Z,7.60
2017-06-23T20:38:16.954Z,5.93
2017-06-23T20:40:45.988Z,4.80
2017-06-23T20:43:15.153Z,6.77
2017-06-23T20:45:44.193Z,5.93
2017-06-23T20:48:13.287Z,5.40
2017-06-23T20:50:42.363Z,6.00
2017-06-23T20:53:11.845Z,5.80
2017-06-23T20:55:40.879Z,6.20
2017-06-23T20:58:09.964Z,6.53
2017-06-23T21:00:39.772Z,5.90
2017-06-23T21:03:08.865Z,6.67
2017-06-23T21:05:38.719Z,6.53
2017-06-23T21:08:07.801Z,6.13
2017-06-23T21:10:36.842Z,7.10
2017-06-23T21:13:05.953Z,7.67
2017-06-23T21:15:35.752Z,5.83
2017-06-23T21:18:05.606Z,5.00
2017-06-23T21:20:34.660Z,6.50
2017-06-23T21:23:04.865Z,6.60
2017-06-23T21:25:33.937Z,6.60
2017-06-23T21:28:03.059Z,8.07
2017-06-23T21:30:32.116Z,11.27
2017-06-23T21:33:01.167Z,6.30
2017-06-23T21:35:30.983Z,7.60
2017-06-23T21:38:00.849Z,11.43
2017-06-23T21:40:58.736Z,8.67
2017-06-23T21:43:29.267Z,7.77
2017-06-23T21:45:58.652Z,12.60
2017-06-23T21:48:27.740Z,8.00
2017-06-23T21:50:56.769Z,6.63
2017-06-23T21:53:25.866Z,7.10
2017-06-23T21:55:54.969Z,7.77
2017-06-23T21:58:24.034Z,10.07
2017-06-23T22:00:53.212Z,6.80
2017-06-23T22:03:22.231Z,8.60
2017-06-23T22:05:51.308Z,7.03
2017-06-23T22:08:20.484Z,8.90
2017-06-23T22:10:49.537Z,13.20
2017-06-23T22:13:19.381Z,7.23
2017-06-23T22:15:48.474Z,7.93
2017-06-23T22:18:18.303Z,9.47
2017-06-23T22:20:47.362Z,9.33
2017-06-23T22:23:17.212Z,16.47
2017-06-23T22:25:46.284Z,14.53
2017-06-23T22:28:15.380Z,12.13
2017-06-23T22:30:45.220Z,17.83
2017-06-23T22:33:14.271Z,9.03
2017-06-23T22:35:44.161Z,12.97
2017-06-23T22:38:13.233Z,11.40
2017-06-23T22:40:42.287Z,12.83
2017-06-23T22:43:11.380Z,10.27
2017-06-23T22:45:40.437Z,10.30
2017-06-23T22:48:09.562Z,12.93
2017-06-23T22:50:39.374Z,9.33
2017-06-23T22:53:09.423Z,13.27
2017-06-23T22:55:38.493Z,16.43
2017-06-23T22:58:08.311Z,7.50
2017-06-23T23:00:37.378Z,9.90
2017-06-23T23:03:06.501Z,14.10
2017-06-23T23:05:36.335Z,12.00
2017-06-23T23:08:05.384Z,18.00
2017-06-23T23:10:35.236Z,15.63
2017-06-23T23:13:04.321Z,12.77
2017-06-23T23:15:34.547Z,19.07
2017-06-23T23:18:03.628Z,9.20
2017-06-23T23:20:33.447Z,17.47
2017-06-23T23:23:02.534Z,8.57
2017-06-23T23:25:32.375Z,20.80
2017-06-23T23:28:01.459Z,14.23
2017-06-23T23:30:30.548Z,12.83
2017-06-23T23:33:00.384Z,11.70
2017-06-23T23:35:29.437Z,12.20
2017-06-23T23:37:59.248Z,9.57
2017-06-23T23:40:29.100Z,12.07
2017-06-23T23:42:58.167Z,9.53
2017-06-23T23:45:28.033Z,11.97
2017-06-23T23:47:57.147Z,13.20
2017-06-23T23:50:26.540Z,9.70
2017-06-23T23:52:55.653Z,13.23
2017-06-23T23:55:24.704Z,10.47
2017-06-23T23:57:53.793Z,10.27
